Terminal Aerodrome Forecast
Issued by NWS

Home | Current Version | Previous Version | Graphics & Text | Print | Product List | Glossary On
Versions: 1 2 3 4 5 6 7 8 9 10 11 12 13 14
000
FTUS43 KICT 091129
TAFSLN
TAF
KSLN 091129Z 0912/1012 32011KT P6SM SCT070
     FM091600 34017G24KT P6SM SCT070
     FM092300 34013KT P6SM BKN070
     FM100100 34007KT P6SM BKN060
     FM100400 22005KT P6SM BKN060=

USA.gov is the U.S. government's official web portal to all federal, state and local government web resources and services.